Time;durP1;ratioP1;P1;durP2;ratioP2;P2;SDS_P1;SDS_P2;PMS_P1;PMS_P2;Temp;Humidity;BMP_temperature;BMP_pressure;BME280_temperature;BME280_humidity;BME280_pressure;Samples;Min_cycle;Max_cycle;Signal;HPM_P1;HPM_P2
2023/04/28 00:02:00;;;;;;;1999.90;999.90;;;;;;;8.69;100.00;95091.41;5009787;28;20195;-66
2023/04/28 00:04:26;;;;;;;1999.90;999.90;;;;;;;8.66;100.00;95081.28;5009555;28;20209;-65
2023/04/28 00:06:51;;;;;;;1999.90;999.90;;;;;;;8.63;100.00;95082.88;5010261;28;20190;-65
2023/04/28 00:09:17;;;;;;;1999.90;999.90;;;;;;;8.62;100.00;95073.16;5009274;28;20214;-65
2023/04/28 00:11:45;;;;;;;1999.90;999.90;;;;;;;8.63;100.00;95060.34;5009192;28;20187;-65
2023/04/28 00:14:11;;;;;;;1999.90;999.90;;;;;;;8.61;100.00;95057.22;5010079;28;20266;-65
2023/04/28 00:16:36;;;;;;;1999.90;999.90;;;;;;;8.60;100.00;95045.56;5009369;28;20202;-66
2023/04/28 00:19:02;;;;;;;1999.90;999.90;;;;;;;8.65;100.00;95037.00;5009322;28;20183;-65
2023/04/28 00:21:27;;;;;;;1999.90;999.90;;;;;;;8.71;100.00;95040.06;5009450;28;20191;-65
2023/04/28 00:23:53;;;;;;;1999.90;999.90;;;;;;;8.69;100.00;95031.50;5009101;28;20206;-66
2023/04/28 00:26:18;;;;;;;1999.90;999.90;;;;;;;8.71;100.00;95024.50;5009212;28;20210;-66
2023/04/28 00:28:43;;;;;;;1999.90;999.90;;;;;;;8.71;100.00;95024.50;5008998;28;20191;-65
2023/04/28 00:31:11;;;;;;;1999.90;999.90;;;;;;;8.72;100.00;95026.06;5009520;28;20278;-65
2023/04/28 00:33:37;;;;;;;1999.90;999.90;;;;;;;8.68;100.00;95021.81;5009491;28;20195;-65
2023/04/28 00:36:03;;;;;;;1999.90;999.90;;;;;;;8.67;100.00;95006.66;5008843;28;20186;-64
2023/04/28 00:38:28;;;;;;;1999.90;999.90;;;;;;;8.66;100.00;95005.88;5008853;28;20191;-64
2023/04/28 00:40:53;;;;;;;1999.90;999.90;;;;;;;8.66;100.00;95015.97;5009333;28;20195;-65
2023/04/28 00:43:19;;;;;;;1999.90;999.90;;;;;;;8.61;100.00;95003.59;5009191;28;20271;-64
2023/04/28 00:45:44;;;;;;;1999.90;999.90;;;;;;;8.60;100.00;95004.75;5008796;28;20203;-65
2023/04/28 00:48:10;;;;;;;1999.90;999.90;;;;;;;8.63;100.00;94998.50;5009019;28;20190;-65
2023/04/28 00:50:35;;;;;;;1999.90;999.90;;;;;;;8.65;100.00;94993.44;5008837;28;20263;-66
2023/04/28 00:53:01;;;;;;;1999.90;999.90;;;;;;;8.68;100.00;94989.94;5009145;28;20210;-66
2023/04/28 00:55:30;;;;;;;1999.90;999.90;;;;;;;8.71;100.00;94991.81;5009027;28;20175;-65
2023/04/28 00:57:56;;;;;;;1999.90;999.90;;;;;;;8.73;100.00;94992.22;5008682;28;20195;-67
2023/04/28 01:00:22;;;;;;;1999.90;999.90;;;;;;;8.77;100.00;94994.88;5008787;28;20305;-66
2023/04/28 01:02:50;;;;;;;1999.90;999.90;;;;;;;8.74;100.00;94996.47;5008851;28;20237;-65
2023/04/28 01:05:15;;;;;;;1999.90;999.90;;;;;;;8.71;100.00;94991.06;5008587;28;20223;-65
2023/04/28 01:07:41;;;;;;;1999.90;999.90;;;;;;;8.75;100.00;94989.84;5008700;28;20206;-64
2023/04/28 01:10:07;;;;;;;1999.90;999.90;;;;;;;8.75;100.00;94978.97;5008272;28;20191;-65
2023/04/28 01:12:32;;;;;;;1999.90;999.90;;;;;;;8.76;100.00;94971.56;5008176;28;20227;-65
2023/04/28 01:14:58;;;;;;;1999.90;999.90;;;;;;;8.83;100.00;94972.31;5008398;28;20206;-65
2023/04/28 01:17:23;;;;;;;1999.90;999.90;;;;;;;8.82;100.00;94970.75;5008440;28;20219;-65
2023/04/28 01:19:49;;;;;;;1999.90;999.90;;;;;;;8.82;100.00;94965.28;5008419;28;20190;-65
2023/04/28 01:22:15;;;;;;;1999.90;999.90;;;;;;;8.80;100.00;94966.88;5008435;28;20202;-65
2023/04/28 01:24:41;;;;;;;1999.90;999.90;;;;;;;8.82;100.00;94968.00;5007930;28;20228;-66
2023/04/28 01:27:06;;;;;;;1999.90;999.90;;;;;;;8.85;100.00;94964.50;5008669;28;20350;-65
2023/04/28 01:29:31;;;;;;;1999.90;999.90;;;;;;;8.86;100.00;94968.75;5008395;28;20197;-65
2023/04/28 01:31:57;;;;;;;1999.90;999.90;;;;;;;8.86;100.00;94966.03;5008081;28;20266;-66
2023/04/28 01:34:22;;;;;;;1999.90;999.90;;;;;;;8.85;100.00;94969.19;5008097;28;20230;-65
2023/04/28 01:36:47;;;;;;;1999.90;999.90;;;;;;;8.81;100.00;94960.25;5007955;28;20256;-65
2023/04/28 01:39:13;;;;;;;1999.90;999.90;;;;;;;8.74;100.00;94952.16;5007767;28;20195;-65
2023/04/28 01:41:39;;;;;;;1999.90;999.90;;;;;;;8.75;100.00;94950.97;5007857;28;20203;-66
2023/04/28 01:44:06;;;;;;;1999.90;999.90;;;;;;;8.76;100.00;94947.88;5008436;28;20211;-64
2023/04/28 01:46:31;;;;;;;1999.90;999.90;;;;;;;8.76;100.00;94945.13;5008187;28;20194;-65
2023/04/28 01:48:57;;;;;;;1999.90;999.90;;;;;;;8.80;100.00;94940.44;5008075;28;20187;-66
2023/04/28 01:51:22;;;;;;;1999.90;999.90;;;;;;;8.83;100.00;94945.09;5007801;28;20241;-65
2023/04/28 01:53:48;;;;;;;1999.90;999.90;;;;;;;8.83;100.00;94947.03;5007669;28;20202;-66
2023/04/28 01:56:13;;;;;;;1999.90;999.90;;;;;;;8.87;100.00;94948.53;5007740;28;20186;-66
2023/04/28 01:58:38;;;;;;;1999.90;999.90;;;;;;;8.85;100.00;94948.16;5008180;28;20205;-65
2023/04/28 02:01:04;;;;;;;1999.90;999.90;;;;;;;8.91;100.00;94935.66;5007871;28;20199;-65
2023/04/28 02:03:29;;;;;;;1999.90;999.90;;;;;;;8.92;100.00;94942.66;5007530;28;20219;-65
2023/04/28 02:05:55;;;;;;;1999.90;999.90;;;;;;;8.92;100.00;94942.66;5008036;28;20214;-65
2023/04/28 02:08:20;;;;;;;1999.90;999.90;;;;;;;8.91;100.00;94945.78;5007510;28;20202;-65
2023/04/28 02:10:45;;;;;;;1999.90;999.90;;;;;;;8.95;100.00;94949.22;5007623;28;20216;-65
2023/04/28 02:13:11;;;;;;;1999.90;999.90;;;;;;;8.99;100.00;94953.47;5007356;28;20203;-65
2023/04/28 02:15:41;;;;;;;1999.90;999.90;;;;;;;9.00;100.00;94949.56;5007700;28;20198;-64
2023/04/28 02:18:06;;;;;;;1999.90;999.90;;;;;;;9.00;100.00;94949.56;5007426;28;20266;-65
2023/04/28 02:20:32;;;;;;;1999.90;999.90;;;;;;;8.98;100.00;94956.59;5007405;28;20191;-64
2023/04/28 02:22:57;;;;;;;1999.90;999.90;;;;;;;8.98;100.00;94953.88;5007475;28;20195;-65
2023/04/28 02:25:22;;;;;;;1999.90;999.90;;;;;;;9.10;100.00;94959.59;5007354;28;20208;-65
2023/04/28 02:27:47;;;;;;;1999.90;999.90;;;;;;;9.14;100.00;94954.88;5007379;28;20179;-65
2023/04/28 02:30:13;;;;;;;1999.90;999.90;;;;;;;9.18;100.00;94980.13;5007750;28;20275;-65
2023/04/28 02:32:38;;;;;;;1999.90;999.90;;;;;;;9.25;100.00;94961.00;5007523;28;20210;-66
2023/04/28 02:35:04;;;;;;;1999.90;999.90;;;;;;;9.21;100.00;94943.13;5007581;28;20198;-65
2023/04/28 02:37:29;;;;;;;1999.90;999.90;;;;;;;8.99;100.00;94915.34;5007681;28;20202;-65
2023/04/28 02:39:57;;;;;;;1999.90;999.90;;;;;;;8.86;100.00;94895.25;5007712;28;20266;-64
2023/04/28 02:42:22;;;;;;;1999.90;999.90;;;;;;;8.96;100.00;94871.84;5007156;28;20224;-64
2023/04/28 02:44:48;;;;;;;1999.90;999.90;;;;;;;8.95;100.00;94845.75;5007661;28;20254;-64
2023/04/28 02:47:13;;;;;;;1999.90;999.90;;;;;;;9.02;100.00;94816.50;5007416;28;20191;-64
2023/04/28 02:49:38;;;;;;;1999.90;999.90;;;;;;;8.90;100.00;94776.22;5007192;28;20199;-64
2023/04/28 02:52:04;;;;;;;1999.90;999.90;;;;;;;8.89;100.00;94738.50;5010846;28;20237;-64
2023/04/28 02:54:29;;;;;;;1999.90;999.90;;;;;;;8.84;100.00;94788.72;5011302;28;20230;-63
2023/04/28 02:56:56;;;;;;;1999.90;999.90;;;;;;;8.80;100.00;94733.53;5011142;28;20195;-64
2023/04/28 02:59:22;;;;;;;1999.90;999.90;;;;;;;8.72;100.00;94620.50;5010458;28;20178;-64
2023/04/28 03:01:48;;;;;;;1999.90;999.90;;;;;;;8.69;100.00;94590.59;5010964;28;20199;-65
2023/04/28 03:04:14;;;;;;;1999.90;999.90;;;;;;;8.60;100.00;94555.72;5011005;28;20222;-65
2023/04/28 03:06:39;;;;;;;1999.90;999.90;;;;;;;8.57;100.00;94513.03;5011172;28;20198;-65
2023/04/28 03:09:05;;;;;;;1999.90;999.90;;;;;;;8.59;100.00;94320.19;5010545;28;20195;-65
2023/04/28 03:11:31;;;;;;;1999.90;999.90;;;;;;;8.59;100.00;94292.19;5010665;28;20199;-65
2023/04/28 03:13:56;;;;;;;1999.90;999.90;;;;;;;8.59;100.00;94260.31;5010601;28;20206;-65
2023/04/28 03:16:21;;;;;;;1999.90;999.90;;;;;;;8.66;100.00;94232.97;5010420;28;20203;-64
2023/04/28 03:18:47;;;;;;;1999.90;999.90;;;;;;;8.71;100.00;94213.44;5010611;28;20233;-64
2023/04/28 03:21:12;;;;;;;1999.90;999.90;;;;;;;8.72;100.00;94204.09;5010477;28;20212;-64
2023/04/28 03:23:37;;;;;;;1999.90;999.90;;;;;;;8.78;100.00;94183.34;5010551;28;20233;-64
2023/04/28 03:26:03;;;;;;;1999.90;999.90;;;;;;;8.78;100.00;94164.28;5010841;28;20195;-64
2023/04/28 03:28:28;;;;;;;1999.90;999.90;;;;;;;8.78;100.00;94158.84;5010183;28;20248;-64
2023/04/28 03:30:54;;;;;;;1999.90;999.90;;;;;;;8.76;100.00;94149.56;5010695;28;20222;-64
2023/04/28 03:33:19;;;;;;;1999.90;999.90;;;;;;;8.78;100.00;94145.25;5010682;28;20236;-65
2023/04/28 03:35:45;;;;;;;1999.90;999.90;;;;;;;8.84;100.00;94135.41;5010649;28;20279;-64
2023/04/28 03:38:10;;;;;;;1999.90;999.90;;;;;;;8.81;100.00;94124.56;5010523;28;20195;-65
2023/04/28 03:40:36;;;;;;;1999.90;999.90;;;;;;;8.88;100.00;94124.41;5010339;28;20195;-64
2023/04/28 03:43:01;;;;;;;1999.90;999.90;;;;;;;8.92;100.00;94109.53;5010106;28;20198;-64
2023/04/28 03:45:26;;;;;;;1999.90;999.90;;;;;;;8.93;100.00;94100.19;5009731;28;20254;-64
2023/04/28 03:47:52;;;;;;;1999.90;999.90;;;;;;;8.93;100.00;94094.00;5010126;28;20266;-65
2023/04/28 03:50:17;;;;;;;1999.90;999.90;;;;;;;8.90;100.00;94090.16;5009981;28;20210;-65
2023/04/28 03:52:43;;;;;;;1999.90;999.90;;;;;;;8.88;100.00;94092.53;5010042;28;20191;-65
2023/04/28 03:55:08;;;;;;;1999.90;999.90;;;;;;;8.82;100.00;94083.31;5009969;28;20191;-65
2023/04/28 03:57:34;;;;;;;1999.90;999.90;;;;;;;8.78;100.00;94076.44;5009914;28;20187;-65
2023/04/28 04:00:00;;;;;;;1999.90;999.90;;;;;;;8.78;100.00;94066.31;5010277;28;20171;-65
2023/04/28 04:02:25;;;;;;;1999.90;999.90;;;;;;;8.82;100.00;94069.72;5008980;28;20191;-64
2023/04/28 04:04:51;;;;;;;1999.90;999.90;;;;;;;8.86;100.00;94073.13;5009473;28;20213;-64
2023/04/28 04:07:16;;;;;;;1999.90;999.90;;;;;;;8.91;100.00;94059.03;5009390;28;20198;-64
2023/04/28 04:09:41;;;;;;;1999.90;999.90;;;;;;;8.91;100.00;94050.84;5010324;28;20194;-65
2023/04/28 04:12:07;;;;;;;1999.90;999.90;;;;;;;8.98;100.00;94047.19;5009411;28;20199;-65
2023/04/28 04:14:32;;;;;;;1999.90;999.90;;;;;;;8.96;100.00;94028.56;5009404;28;20191;-64
2023/04/28 04:16:57;;;;;;;1999.90;999.90;;;;;;;8.92;100.00;94016.22;5009243;28;20195;-64
2023/04/28 04:19:25;;;;;;;1999.90;999.90;;;;;;;8.95;100.00;94007.97;5009286;28;20336;-65
2023/04/28 04:21:51;;;;;;;1999.90;999.90;;;;;;;9.03;100.00;93995.72;5009789;28;20198;-65
2023/04/28 04:24:16;;;;;;;1999.90;999.90;;;;;;;9.10;100.00;93976.47;5009258;28;20207;-65
2023/04/28 04:26:41;;;;;;;1999.90;999.90;;;;;;;9.22;100.00;93964.13;5009190;28;20195;-65
2023/04/28 04:29:07;;;;;;;1999.90;999.90;;;;;;;9.27;100.00;93928.97;5009311;28;20225;-65
2023/04/28 04:31:32;;;;;;;1999.90;999.90;;;;;;;9.21;100.00;93919.78;5008985;28;20175;-65
2023/04/28 04:33:57;;;;;;;1999.90;999.90;;;;;;;9.13;100.00;93917.66;5009097;28;20206;-65
2023/04/28 04:36:23;;;;;;;1999.90;999.90;;;;;;;9.20;100.00;93912.81;5009256;28;20198;-65
2023/04/28 04:38:48;;;;;;;1999.90;999.90;;;;;;;9.25;100.00;93909.53;5009282;28;20206;-64
2023/04/28 04:41:14;;;;;;;1999.90;999.90;;;;;;;9.28;100.00;93907.91;5009149;28;20217;-64
2023/04/28 04:43:39;;;;;;;1999.90;999.90;;;;;;;9.34;100.00;93917.88;5009168;28;20280;-64
2023/04/28 04:46:05;;;;;;;1999.90;999.90;;;;;;;9.36;100.00;93937.25;5008919;28;20237;-65
2023/04/28 04:48:30;;;;;;;1999.90;999.90;;;;;;;9.41;100.00;93934.03;5008809;28;20274;-65
2023/04/28 04:50:56;;;;;;;1999.90;999.90;;;;;;;9.45;100.00;93934.69;5008957;28;20196;-65
2023/04/28 04:53:21;;;;;;;1999.90;999.90;;;;;;;9.55;100.00;93936.31;5008668;28;20195;-65
2023/04/28 04:55:46;;;;;;;1999.90;999.90;;;;;;;9.57;100.00;93947.56;5008497;28;20195;-65
2023/04/28 04:58:12;;;;;;;1999.90;999.90;;;;;;;9.61;100.00;93942.00;5008425;28;20201;-64
2023/04/28 05:00:37;;;;;;;1999.90;999.90;;;;;;;9.60;100.00;93946.72;5008639;28;20226;-65
2023/04/28 05:03:04;;;;;;;1999.90;999.90;;;;;;;9.63;100.00;93951.31;5008256;28;20175;-64
2023/04/28 05:05:30;;;;;;;1999.90;999.90;;;;;;;9.60;100.00;93967.75;5008691;28;20212;-64
2023/04/28 05:07:56;;;;;;;1999.90;999.90;;;;;;;9.62;100.00;93987.91;5008403;28;20239;-64
2023/04/28 05:10:23;;;;;;;1999.90;999.90;;;;;;;9.72;100.00;93984.13;5008254;28;20214;-64
2023/04/28 05:12:49;;;;;;;1999.90;999.90;;;;;;;9.74;100.00;93989.94;5007823;28;20199;-64
2023/04/28 05:15:14;;;;;;;1999.90;999.90;;;;;;;9.72;100.00;93997.00;5008270;28;20195;-68
2023/04/28 05:17:40;;;;;;;1999.90;999.90;;;;;;;9.70;100.00;94011.03;5008297;28;20204;-65
2023/04/28 05:20:06;;;;;;;1999.90;999.90;;;;;;;9.75;100.00;94018.72;5008168;28;20224;-65
2023/04/28 05:22:31;;;;;;;1999.90;999.90;;;;;;;9.78;100.00;94028.75;5008127;28;20243;-65
2023/04/28 05:24:57;;;;;;;1999.90;999.90;;;;;;;9.80;100.00;94036.50;5007857;28;20210;-68
2023/04/28 05:27:22;;;;;;;1999.90;999.90;;;;;;;9.81;100.00;94038.78;5008239;28;20195;-68
2023/04/28 05:29:47;;;;;;;1999.90;999.90;;;;;;;9.88;100.00;94043.28;5008055;28;20188;-67
2023/04/28 05:32:13;;;;;;;1999.90;999.90;;;;;;;9.89;100.00;94048.31;5007483;28;20273;-67
2023/04/28 05:34:38;;;;;;;1999.90;999.90;;;;;;;9.90;100.00;94057.25;5008073;28;20206;-66
2023/04/28 05:37:03;;;;;;;1999.90;999.90;;;;;;;9.91;100.00;94062.28;5008183;28;20196;-66
2023/04/28 05:39:29;;;;;;;1999.90;999.90;;;;;;;9.91;100.00;94061.53;5008430;28;20195;-65
2023/04/28 05:41:54;;;;;;;1999.90;999.90;;;;;;;9.94;100.00;94069.59;5008111;28;20210;-65
2023/04/28 05:44:20;;;;;;;1999.90;999.90;;;;;;;9.96;100.00;94067.22;5007902;28;20202;-64
2023/04/28 05:46:45;;;;;;;1999.90;999.90;;;;;;;9.99;100.00;94069.06;5007853;28;20186;-65
2023/04/28 05:49:10;;;;;;;1999.90;999.90;;;;;;;10.02;100.00;94054.56;5007752;28;20194;-68
2023/04/28 05:51:36;;;;;;;1999.90;999.90;;;;;;;9.97;100.00;94057.84;5007618;28;20222;-66
2023/04/28 05:54:02;;;;;;;1999.90;999.90;;;;;;;9.97;100.00;94063.28;5007742;28;20200;-62
2023/04/28 05:56:28;;;;;;;1999.90;999.90;;;;;;;10.00;100.00;94065.16;5007362;28;20192;-65
2023/04/28 05:58:53;;;;;;;1999.90;999.90;;;;;;;10.06;100.00;94057.97;5007820;28;20239;-66
2023/04/28 06:01:19;;;;;;;1999.90;999.90;;;;;;;10.08;100.00;94052.88;5008309;28;20190;-65
2023/04/28 06:03:44;;;;;;;1999.90;999.90;;;;;;;10.06;100.00;94071.63;5007903;28;20201;-66
2023/04/28 06:06:10;;;;;;;1999.90;999.90;;;;;;;10.13;100.00;94091.72;5008318;28;20165;-66
2023/04/28 06:08:36;;;;;;;1999.90;999.90;;;;;;;10.15;100.00;94101.00;5007799;28;20203;-65
2023/04/28 06:11:01;;;;;;;1999.90;999.90;;;;;;;10.16;100.00;94112.69;5008066;28;20192;-65
2023/04/28 06:13:26;;;;;;;1999.90;999.90;;;;;;;10.18;100.00;94111.06;5007894;28;20202;-66
2023/04/28 06:15:52;;;;;;;1999.90;999.90;;;;;;;10.17;100.00;94119.66;5008003;28;20224;-69
2023/04/28 06:18:17;;;;;;;1999.90;999.90;;;;;;;10.07;100.00;94127.72;5007326;28;20202;-65
2023/04/28 06:20:43;;;;;;;1999.90;999.90;;;;;;;10.09;100.00;94136.22;5007242;28;20194;-65
2023/04/28 06:23:08;;;;;;;1999.90;999.90;;;;;;;10.10;100.00;94140.47;5007383;28;20271;-65
2023/04/28 06:25:35;;;;;;;1999.90;999.90;;;;;;;10.14;100.00;94149.31;5009014;28;20215;-65
2023/04/28 06:28:01;;;;;;;1999.90;999.90;;;;;;;10.21;100.00;94147.59;5011492;28;20198;-67
2023/04/28 06:30:26;;;;;;;1999.90;999.90;;;;;;;10.25;100.00;94143.59;5011583;28;20192;-66
2023/04/28 06:32:52;;;;;;;1999.90;999.90;;;;;;;10.32;100.00;94132.50;5011649;28;20204;-66
2023/04/28 06:35:17;;;;;;;1999.90;999.90;;;;;;;10.35;100.00;94130.84;5011131;28;20272;-66
2023/04/28 06:37:43;;;;;;;1999.90;999.90;;;;;;;10.44;100.00;94120.84;5011675;28;20223;-67
2023/04/28 06:40:09;;;;;;;1999.90;999.90;;;;;;;10.50;100.00;94116.38;5011646;28;20195;-67
2023/04/28 06:42:34;;;;;;;1999.90;999.90;;;;;;;10.56;100.00;94116.63;5011179;28;20229;-66
2023/04/28 06:45:00;;;;;;;1999.90;999.90;;;;;;;10.61;100.00;94116.84;5010964;28;20292;-67
2023/04/28 06:47:25;;;;;;;1999.90;999.90;;;;;;;10.68;100.00;94105.72;5011103;28;20212;-67
2023/04/28 06:49:51;;;;;;;1999.90;999.90;;;;;;;10.72;100.00;94092.72;5011076;28;20198;-66
2023/04/28 06:52:17;;;;;;;1999.90;999.90;;;;;;;10.76;100.00;94076.22;5010682;28;20202;-66
2023/04/28 06:54:42;;;;;;;1999.90;999.90;;;;;;;10.92;100.00;94062.47;5011328;28;20198;-66
2023/04/28 06:57:07;;;;;;;1999.90;999.90;;;;;;;11.07;100.00;94037.00;5010596;28;20236;-66
2023/04/28 06:59:33;;;;;;;1999.90;999.90;;;;;;;11.33;100.00;94026.78;5010856;28;20290;-66
2023/04/28 07:01:59;;;;;;;1999.90;999.90;;;;;;;11.64;100.00;94011.28;5010878;28;20222;-67
2023/04/28 07:04:26;;;;;;;1999.90;999.90;;;;;;;11.86;100.00;94023.78;5010911;28;20295;-68
2023/04/28 07:06:51;;;;;;;1999.90;999.90;;;;;;;11.95;100.00;94047.72;5011158;28;20185;-67
2023/04/28 07:09:16;;;;;;;1999.90;999.90;;;;;;;12.10;100.00;94076.09;5010792;28;20226;-67
2023/04/28 07:11:43;;;;;;;1999.90;999.90;;;;;;;12.32;100.00;94104.25;5010966;28;20225;-67
2023/04/28 07:14:08;;;;;;;1999.90;999.90;;;;;;;12.41;100.00;94145.38;5010725;28;20198;-67
2023/04/28 07:16:33;;;;;;;1999.90;999.90;;;;;;;12.60;100.00;94169.69;5010622;28;20206;-66
2023/04/28 07:18:59;;;;;;;1999.90;999.90;;;;;;;12.60;100.00;94226.44;5010691;28;20202;-66
2023/04/28 07:21:24;;;;;;;1999.90;999.90;;;;;;;12.57;100.00;94290.34;5011035;28;20249;-66
2023/04/28 07:23:50;;;;;;;1999.90;999.90;;;;;;;12.48;100.00;94343.06;5010206;28;20211;-67
2023/04/28 07:26:15;;;;;;;1999.90;999.90;;;;;;;12.36;100.00;94376.69;5010440;28;20198;-66
2023/04/28 07:28:42;;;;;;;1999.90;999.90;;;;;;;12.34;100.00;94392.00;5010458;28;20203;-66
2023/04/28 07:31:07;;;;;;;1999.90;999.90;;;;;;;12.33;100.00;94423.34;5010299;28;20248;-66
2023/04/28 07:33:33;;;;;;;1999.90;999.90;;;;;;;12.36;100.00;94430.69;5010469;28;20199;-66
2023/04/28 07:35:59;;;;;;;1999.90;999.90;;;;;;;12.37;100.00;94429.47;5009554;28;20198;-66
2023/04/28 07:38:24;;;;;;;1999.90;999.90;;;;;;;12.35;100.00;94442.84;5010520;28;20183;-67
2023/04/28 07:40:50;;;;;;;1999.90;999.90;;;;;;;12.38;100.00;94448.19;5010355;28;20221;-66
2023/04/28 07:43:15;;;;;;;1999.90;999.90;;;;;;;12.41;100.00;94441.84;5010143;28;20198;-67
2023/04/28 07:45:41;;;;;;;1999.90;999.90;;;;;;;12.43;100.00;94455.09;5010298;28;20206;-66
2023/04/28 07:48:06;;;;;;;1999.90;999.90;;;;;;;12.48;100.00;94481.94;5009842;28;20202;-66
2023/04/28 07:50:33;;;;;;;1999.90;999.90;;;;;;;12.45;100.00;94497.28;5010318;28;20274;-66
2023/04/28 07:52:58;;;;;;;1999.90;999.90;;;;;;;12.52;100.00;94521.72;5009792;28;20220;-66
2023/04/28 07:55:24;;;;;;;1999.90;999.90;;;;;;;12.50;100.00;94559.69;5010046;28;20203;-66
2023/04/28 07:57:49;;;;;;;1999.90;999.90;;;;;;;12.54;100.00;94587.00;5010446;28;20201;-66
2023/04/28 08:00:15;;;;;;;1999.90;999.90;;;;;;;12.52;100.00;94611.31;5010081;28;20194;-69
2023/04/28 08:02:40;;;;;;;1999.90;999.90;;;;;;;12.57;100.00;94629.97;5009743;28;20187;-66
2023/04/28 08:05:06;;;;;;;1999.90;999.90;;;;;;;12.56;100.00;94642.09;5009584;28;20215;-66
2023/04/28 08:07:32;;;;;;;1999.90;999.90;;;;;;;12.60;100.00;94656.47;5009357;28;20198;-67
2023/04/28 08:09:57;;;;;;;1999.90;999.90;;;;;;;12.62;100.00;94659.53;5010085;28;20203;-66
2023/04/28 08:12:23;;;;;;;1999.90;999.90;;;;;;;12.63;100.00;94650.91;5009861;28;20217;-66
2023/04/28 08:14:48;;;;;;;1999.90;999.90;;;;;;;12.55;100.00;94657.00;5009492;28;20202;-66
2023/04/28 08:17:14;;;;;;;1999.90;999.90;;;;;;;12.48;100.00;94649.75;5009728;28;20222;-67
2023/04/28 08:19:39;;;;;;;1999.90;999.90;;;;;;;12.46;100.00;94613.81;5009246;28;20201;-67
2023/04/28 08:22:06;;;;;;;1999.90;999.90;;;;;;;12.51;100.00;94571.44;5009708;28;20202;-67
2023/04/28 08:24:34;;;;;;;1999.90;999.90;;;;;;;12.57;100.00;94531.38;5009325;28;20213;-67
2023/04/28 08:27:04;;;;;;;1999.90;999.90;;;;;;;12.53;100.00;94508.78;5009251;28;20202;-68
2023/04/28 08:29:30;;;;;;;1999.90;999.90;;;;;;;12.38;100.00;94492.00;5009089;28;20198;-66
2023/04/28 08:31:56;;;;;;;1999.90;999.90;;;;;;;12.32;100.00;94460.13;5009495;28;20195;-66
2023/04/28 08:34:22;;;;;;;1999.90;999.90;;;;;;;12.23;100.00;94436.13;5009563;28;20190;-67
2023/04/28 08:36:47;;;;;;;1999.90;999.90;;;;;;;12.14;100.00;94394.97;5009358;28;20223;-67
2023/04/28 08:39:13;;;;;;;1999.90;999.90;;;;;;;12.01;100.00;94357.84;5009239;28;20195;-67
2023/04/28 08:41:39;;;;;;;1999.90;999.90;;;;;;;12.02;100.00;94315.63;5009229;28;20265;-66
2023/04/28 08:44:08;;;;;;;1999.90;999.90;;;;;;;12.03;100.00;94273.38;5009565;28;20217;-66
2023/04/28 08:46:35;;;;;;;1999.90;999.90;;;;;;;12.07;100.00;94142.66;5009231;28;20206;-67
2023/04/28 08:49:03;;;;;;;1999.90;999.90;;;;;;;12.09;100.00;94096.47;5008135;28;20205;-66
2023/04/28 08:51:43;;;;;;;1999.90;999.90;;;;;;;12.01;100.00;94073.28;5008598;28;20273;-67
2023/04/28 08:54:10;;;;;;;1999.90;999.90;;;;;;;12.00;100.00;94049.88;5008927;28;20199;-67
2023/04/28 08:56:37;;;;;;;1999.90;999.90;;;;;;;12.06;100.00;94032.44;5008589;28;20198;-67
2023/04/28 08:59:03;;;;;;;1999.90;999.90;;;;;;;12.07;100.00;94000.38;5008710;28;20232;-68
2023/04/28 09:01:30;;;;;;;1999.90;999.90;;;;;;;12.08;100.00;93982.75;5007956;28;20233;-67
2023/04/28 09:03:55;;;;;;;1999.90;999.90;;;;;;;12.21;100.00;93951.34;5008605;28;20205;-67
2023/04/28 09:06:21;;;;;;;1999.90;999.90;;;;;;;12.21;100.00;93939.66;5008492;28;20191;-68
2023/04/28 09:08:47;;;;;;;1999.90;999.90;;;;;;;12.23;100.00;93931.72;5008399;28;20198;-68
2023/04/28 09:11:13;;;;;;;1999.90;999.90;;;;;;;12.34;100.00;93921.13;5008290;28;20205;-67
2023/04/28 09:13:39;;;;;;;1999.90;999.90;;;;;;;12.47;100.00;93906.16;5008311;28;20245;-68
2023/04/28 09:16:06;;;;;;;1999.90;999.90;;;;;;;12.49;100.00;93905.69;5008629;28;20203;-67
2023/04/28 09:18:32;;;;;;;1999.90;999.90;;;;;;;12.50;100.00;93918.19;5008050;28;20241;-67
2023/04/28 09:21:05;;;;;;;1999.90;999.90;;;;;;;12.54;100.00;93935.22;5008158;28;20281;-67
2023/04/28 09:23:32;;;;;;;1999.90;999.90;;;;;;;12.63;100.00;93927.81;5007912;28;20187;-67
2023/04/28 09:26:06;;;;;;;1999.90;999.90;;;;;;;12.64;100.00;93939.53;5008072;28;20203;-67
2023/04/28 09:28:33;;;;;;;1999.90;999.90;;;;;;;12.65;100.00;93938.31;5008324;28;20179;-67
2023/04/28 09:30:59;;;;;;;1999.90;999.90;;;;;;;12.46;100.00;93955.88;5008389;28;20281;-67
2023/04/28 09:33:25;;;;;;;1999.90;999.90;;;;;;;12.41;100.00;93945.50;5008301;28;20198;-67
2023/04/28 09:35:51;;;;;;;1999.90;999.90;;;;;;;12.36;100.00;93951.56;5008010;28;20205;-67
2023/04/28 09:38:19;;;;;;;1999.90;999.90;;;;;;;12.27;100.00;93946.81;5008486;28;20240;-68
2023/04/28 09:41:05;;;;;;;1999.90;999.90;;;;;;;12.25;100.00;93924.63;5007784;28;20268;-67
2023/04/28 09:43:34;;;;;;;1999.90;999.90;;;;;;;12.23;100.00;93894.19;5007998;28;20210;-66
2023/04/28 09:46:04;;;;;;;1999.90;999.90;;;;;;;12.19;100.00;93862.69;5007963;28;20194;-65
2023/04/28 09:48:35;;;;;;;1999.90;999.90;;;;;;;12.04;100.00;93837.88;5007829;28;20213;-65
2023/04/28 09:51:02;;;;;;;1999.90;999.90;;;;;;;11.96;100.00;93792.09;5007415;28;20194;-66
2023/04/28 09:53:29;;;;;;;1999.90;999.90;;;;;;;11.91;100.00;93762.59;5008240;28;20170;-66
2023/04/28 09:55:57;;;;;;;1999.90;999.90;;;;;;;11.87;100.00;93729.16;5007736;28;20195;-65
2023/04/28 09:58:23;;;;;;;1999.90;999.90;;;;;;;11.94;100.00;93690.53;5008072;28;20208;-65
2023/04/28 10:00:59;;;;;;;1999.90;999.90;;;;;;;11.91;100.00;93664.88;5007957;28;20199;-69
2023/04/28 10:03:29;;;;;;;1999.90;999.90;;;;;;;11.99;100.00;93643.47;5007792;28;20195;-69
2023/04/28 10:05:57;;;;;;;1999.90;999.90;;;;;;;11.91;100.00;93625.81;5007575;28;20226;-68
2023/04/28 10:08:23;;;;;;;1999.90;999.90;;;;;;;11.95;100.00;93601.81;5007532;28;20261;-68
2023/04/28 10:10:51;;;;;;;1999.90;999.90;;;;;;;12.07;100.00;93590.72;5007642;28;20206;-66
2023/04/28 10:13:18;;;;;;;1999.90;999.90;;;;;;;12.16;100.00;93581.72;5007881;28;20188;-70
2023/04/28 10:15:44;;;;;;;1999.90;999.90;;;;;;;12.24;100.00;93561.06;5007423;28;20190;-67
2023/04/28 10:18:12;;;;;;;1999.90;999.90;;;;;;;12.20;100.00;93563.19;5007187;28;20200;-66
2023/04/28 10:20:38;;;;;;;1999.90;999.90;;;;;;;12.20;100.00;93549.53;5007904;28;20198;-67
2023/04/28 10:23:37;;;;;;;1999.90;999.90;;;;;;;12.13;100.00;93511.53;5007516;28;20206;-66
2023/04/28 10:26:09;;;;;;;1999.90;999.90;;;;;;;12.13;100.00;93492.38;4985574;28;20455;-66
2023/04/28 10:28:35;;;;;;;1999.90;999.90;;;;;;;12.20;100.00;93483.84;5007597;28;20197;-66
2023/04/28 10:31:11;;;;;;;1999.90;999.90;;;;;;;12.20;100.00;93461.94;5007541;28;20221;-66
2023/04/28 10:33:38;;;;;;;1999.90;999.90;;;;;;;12.25;100.00;93453.09;5007463;28;20212;-66
2023/04/28 10:36:04;;;;;;;1999.90;999.90;;;;;;;12.18;100.00;93451.47;5007620;28;20202;-66
2023/04/28 10:38:29;;;;;;;1999.90;999.90;;;;;;;12.25;100.00;93447.63;5007851;28;20198;-66
2023/04/28 10:40:59;;;;;;;1999.90;999.90;;;;;;;12.28;100.00;93495.97;5007257;28;20233;-66
2023/04/28 10:43:28;;;;;;;1999.90;999.90;;;;;;;12.27;100.00;93530.78;5007184;28;20199;-66
2023/04/28 10:45:53;;;;;;;1999.90;999.90;;;;;;;12.21;100.00;93857.53;5007153;28;20214;-66